Time;durP1;ratioP1;P1;durP2;ratioP2;P2;SDS_P1;SDS_P2;PMS_P1;PMS_P2;Temp;Humidity;BMP_temperature;BMP_pressure;BME280_temperature;BME280_humidity;BME280_pressure;Samples;Min_cycle;Max_cycle;Signal;HPM_P1;HPM_P2
2021/01/14 00:00:50;;;;;;;5.97;3.00;;;;;;;;;;2099556;28;20809;-60
2021/01/14 00:01:50;;;;;;;9.60;3.03;;;;;;;;;;2100006;28;20232;-58
2021/01/14 00:02:50;;;;;;;6.07;2.73;;;;;;;;;;2092296;28;20179;-55
2021/01/14 00:03:50;;;;;;;2.87;2.37;;;;;;;;;;2091383;28;20247;-60
2021/01/14 00:04:51;;;;;;;5.63;3.07;;;;;;;;;;2093065;28;20183;-60
2021/01/14 00:05:51;;;;;;;7.97;3.23;;;;;;;;;;2097441;28;20671;-57
2021/01/14 00:06:52;;;;;;;12.40;3.37;;;;;;;;;;2102257;28;20186;-55
2021/01/14 00:07:53;;;;;;;7.87;2.90;;;;;;;;;;2104961;28;20198;-54
2021/01/14 00:08:53;;;;;;;9.70;3.17;;;;;;;;;;2107415;28;20666;-56
2021/01/14 00:09:54;;;;;;;8.30;2.67;;;;;;;;;;2106669;28;20395;-55
2021/01/14 00:10:54;;;;;;;11.73;3.23;;;;;;;;;;2106953;28;20702;-53
2021/01/14 00:11:54;;;;;;;3.87;3.00;;;;;;;;;;2106468;28;20182;-55
2021/01/14 00:12:54;;;;;;;5.73;3.10;;;;;;;;;;2107609;28;20173;-53
2021/01/14 00:13:55;;;;;;;6.23;2.70;;;;;;;;;;2105656;28;20186;-54
2021/01/14 00:14:55;;;;;;;6.00;2.87;;;;;;;;;;2102923;28;20535;-55
2021/01/14 00:15:55;;;;;;;7.20;3.50;;;;;;;;;;2105089;28;20256;-57
2021/01/14 00:16:56;;;;;;;10.60;3.37;;;;;;;;;;2106968;28;20170;-53
2021/01/14 00:17:56;;;;;;;7.43;3.37;;;;;;;;;;2107121;28;20654;-52
2021/01/14 00:18:56;;;;;;;6.73;2.47;;;;;;;;;;2107567;28;20177;-54
2021/01/14 00:19:57;;;;;;;6.57;2.83;;;;;;;;;;2098154;28;20220;-55
2021/01/14 00:20:57;;;;;;;7.23;3.33;;;;;;;;;;2098468;28;20194;-51
2021/01/14 00:21:57;;;;;;;7.60;2.70;;;;;;;;;;2107474;28;20194;-54
2021/01/14 00:22:57;;;;;;;5.03;2.90;;;;;;;;;;2107675;28;20206;-60
2021/01/14 00:23:58;;;;;;;3.07;2.30;;;;;;;;;;2107485;28;20716;-60
2021/01/14 00:24:58;;;;;;;5.00;2.83;;;;;;;;;;2102706;28;20210;-59
2021/01/14 00:25:58;;;;;;;6.47;2.60;;;;;;;;;;2106398;28;20193;-56
2021/01/14 00:26:58;;;;;;;7.57;2.87;;;;;;;;;;2098628;28;20187;-57
2021/01/14 00:27:59;;;;;;;8.20;3.03;;;;;;;;;;2098349;28;20213;-60
2021/01/14 00:28:59;;;;;;;4.80;2.80;;;;;;;;;;2107809;28;20175;-57
2021/01/14 00:29:59;;;;;;;6.13;2.80;;;;;;;;;;2107173;28;20170;-53
2021/01/14 00:31:00;;;;;;;7.13;3.23;;;;;;;;;;2107547;28;20174;-53
2021/01/14 00:32:00;;;;;;;8.53;2.90;;;;;;;;;;2090028;28;20558;-54
2021/01/14 00:33:00;;;;;;;9.70;2.67;;;;;;;;;;2090051;28;20259;-55
2021/01/14 00:34:01;;;;;;;7.33;2.93;;;;;;;;;;2089565;28;20285;-55
2021/01/14 00:35:01;;;;;;;7.23;3.40;;;;;;;;;;2098603;28;20750;-58
2021/01/14 00:36:01;;;;;;;4.97;2.33;;;;;;;;;;2100003;28;20209;-56
2021/01/14 00:38:20;;;;;;;7.37;3.20;;;;;;;;;;2099109;28;20162;-55
2021/01/14 00:39:21;;;;;;;6.63;2.87;;;;;;;;;;2099317;28;20423;-56
2021/01/14 00:40:29;;;;;;;6.03;3.43;;;;;;;;;;2107337;28;20175;-56
2021/01/14 00:41:36;;;;;;;6.10;3.03;;;;;;;;;;2098352;28;20266;-56
2021/01/14 00:42:36;;;;;;;8.10;3.40;;;;;;;;;;2099273;28;20384;-53
2021/01/14 00:43:36;;;;;;;9.53;3.60;;;;;;;;;;2107050;28;20870;-55
2021/01/14 00:44:37;;;;;;;3.83;3.17;;;;;;;;;;2107033;28;20206;-56
2021/01/14 00:45:37;;;;;;;4.10;2.87;;;;;;;;;;2103516;28;20183;-55
2021/01/14 00:46:37;;;;;;;6.57;3.70;;;;;;;;;;2098901;28;20179;-57
2021/01/14 00:47:38;;;;;;;7.33;2.77;;;;;;;;;;2089556;28;20175;-52
2021/01/14 00:48:38;;;;;;;5.60;3.10;;;;;;;;;;2090128;28;20222;-55
2021/01/14 00:49:38;;;;;;;6.00;3.90;;;;;;;;;;2098956;28;20167;-51
2021/01/14 00:50:38;;;;;;;7.23;3.60;;;;;;;;;;2089791;28;20180;-54
2021/01/14 00:51:39;;;;;;;5.20;3.07;;;;;;;;;;2081992;28;20208;-58
2021/01/14 00:52:40;;;;;;;6.17;2.87;;;;;;;;;;2089839;28;20164;-56
2021/01/14 00:53:40;;;;;;;7.43;3.50;;;;;;;;;;2099018;28;20648;-56
2021/01/14 00:54:40;;;;;;;6.13;3.07;;;;;;;;;;2098761;28;20179;-53
2021/01/14 00:55:40;;;;;;;5.83;3.30;;;;;;;;;;2093642;28;20174;-53
2021/01/14 00:56:41;;;;;;;4.77;3.33;;;;;;;;;;2089907;28;20176;-53
2021/01/14 00:57:43;;;;;;;6.27;3.20;;;;;;;;;;2089511;28;20168;-54
2021/01/14 00:58:43;;;;;;;7.17;3.00;;;;;;;;;;2098450;28;20179;-54
2021/01/14 00:59:43;;;;;;;7.10;3.33;;;;;;;;;;2107103;28;20430;-53
2021/01/14 01:00:43;;;;;;;11.07;3.57;;;;;;;;;;2107358;28;20165;-56
2021/01/14 01:01:44;;;;;;;5.17;3.20;;;;;;;;;;2099429;28;20170;-54
2021/01/14 01:02:45;;;;;;;7.80;3.33;;;;;;;;;;2104610;28;20174;-55
2021/01/14 01:03:46;;;;;;;7.40;3.27;;;;;;;;;;2107629;28;20170;-56
2021/01/14 01:04:46;;;;;;;6.70;2.70;;;;;;;;;;2093261;22;20684;-60
2021/01/14 01:05:47;;;;;;;6.13;3.40;;;;;;;;;;2079546;28;20944;-60
2021/01/14 01:06:47;;;;;;;6.53;2.63;;;;;;;;;;2084851;28;20180;-59
2021/01/14 01:07:51;;;;;;;7.80;2.47;;;;;;;;;;2081020;28;20180;-60
2021/01/14 01:08:51;;;;;;;5.33;3.07;;;;;;;;;;2084243;28;20191;-62
2021/01/14 01:09:52;;;;;;;8.17;2.93;;;;;;;;;;2079244;28;20533;-58
2021/01/14 01:10:52;;;;;;;6.10;2.40;;;;;;;;;;2081200;28;20176;-60
2021/01/14 01:11:52;;;;;;;4.47;2.43;;;;;;;;;;2089824;28;20168;-62
2021/01/14 01:12:53;;;;;;;11.57;3.17;;;;;;;;;;2090209;28;20565;-57
2021/01/14 01:13:54;;;;;;;7.00;3.57;;;;;;;;;;2088804;28;20180;-60
2021/01/14 01:14:54;;;;;;;4.93;3.10;;;;;;;;;;2087280;28;20412;-60
2021/01/14 01:15:54;;;;;;;6.23;2.37;;;;;;;;;;2089970;28;20271;-62
2021/01/14 01:16:55;;;;;;;9.83;2.63;;;;;;;;;;2081291;28;20183;-62
2021/01/14 01:17:55;;;;;;;4.73;2.60;;;;;;;;;;2081272;28;20686;-64
2021/01/14 01:18:55;;;;;;;5.03;2.67;;;;;;;;;;2082087;28;20219;-59
2021/01/14 01:19:56;;;;;;;8.27;3.17;;;;;;;;;;2083038;28;20230;-59
2021/01/14 01:20:56;;;;;;;6.60;3.30;;;;;;;;;;2081665;28;20205;-60
2021/01/14 01:21:56;;;;;;;10.30;2.80;;;;;;;;;;2086942;28;20183;-57
2021/01/14 01:22:56;;;;;;;6.83;3.10;;;;;;;;;;2090794;28;20741;-59
2021/01/14 01:23:57;;;;;;;4.00;2.90;;;;;;;;;;2090794;28;20164;-61
2021/01/14 01:24:57;;;;;;;4.60;2.73;;;;;;;;;;2090149;28;20190;-56
2021/01/14 01:25:57;;;;;;;7.17;3.20;;;;;;;;;;2089974;28;20192;-59
2021/01/14 01:26:57;;;;;;;6.60;3.60;;;;;;;;;;2089705;28;20189;-59
2021/01/14 01:27:58;;;;;;;4.77;2.77;;;;;;;;;;2080905;28;20207;-63
2021/01/14 01:28:58;;;;;;;5.10;2.70;;;;;;;;;;2081226;28;20230;-61
2021/01/14 01:29:58;;;;;;;9.13;2.80;;;;;;;;;;2090450;28;20269;-61
2021/01/14 01:30:59;;;;;;;5.53;2.80;;;;;;;;;;2089931;28;20176;-61
2021/01/14 01:31:59;;;;;;;12.97;3.17;;;;;;;;;;2090202;28;20172;-61
2021/01/14 01:32:59;;;;;;;3.33;2.23;;;;;;;;;;2090151;28;20343;-59
2021/01/14 01:33:59;;;;;;;4.80;3.13;;;;;;;;;;2090023;28;20176;-59
2021/01/14 01:35:00;;;;;;;4.67;3.00;;;;;;;;;;2073649;28;20268;-59
2021/01/14 01:36:00;;;;;;;9.73;3.80;;;;;;;;;;2073677;28;20545;-61
2021/01/14 01:37:00;;;;;;;4.73;2.60;;;;;;;;;;2090270;28;20167;-59
2021/01/14 01:38:01;;;;;;;8.53;3.17;;;;;;;;;;2090413;28;20229;-59
2021/01/14 01:39:01;;;;;;;5.87;3.10;;;;;;;;;;2087764;28;20192;-58
2021/01/14 01:40:02;;;;;;;7.93;3.27;;;;;;;;;;2087821;28;20248;-55
2021/01/14 01:41:03;;;;;;;7.90;2.40;;;;;;;;;;2082176;28;20220;-60
2021/01/14 01:42:04;;;;;;;7.87;3.47;;;;;;;;;;2082139;28;20409;-59
2021/01/14 01:43:04;;;;;;;6.53;2.90;;;;;;;;;;2073441;28;20216;-59
2021/01/14 01:44:04;;;;;;;6.27;2.43;;;;;;;;;;2074141;28;20403;-58
2021/01/14 01:45:05;;;;;;;10.30;3.13;;;;;;;;;;2090514;28;20237;-60
2021/01/14 01:46:05;;;;;;;9.83;2.90;;;;;;;;;;2080863;28;20632;-61
2021/01/14 01:47:06;;;;;;;4.37;2.93;;;;;;;;;;2081576;28;20239;-57
2021/01/14 01:48:06;;;;;;;4.33;3.17;;;;;;;;;;2081663;28;20230;-58
2021/01/14 01:49:07;;;;;;;5.33;2.60;;;;;;;;;;2081384;28;20160;-59
2021/01/14 01:50:07;;;;;;;7.10;3.50;;;;;;;;;;2090246;28;20199;-61
2021/01/14 01:51:07;;;;;;;5.53;2.70;;;;;;;;;;2081240;28;20598;-59
2021/01/14 01:52:08;;;;;;;6.47;2.93;;;;;;;;;;2073137;28;20678;-59
2021/01/14 01:53:09;;;;;;;3.83;3.20;;;;;;;;;;2081384;28;20206;-57
2021/01/14 01:54:11;;;;;;;9.33;3.47;;;;;;;;;;2081249;28;20653;-63
2021/01/14 01:55:11;;;;;;;9.63;2.77;;;;;;;;;;2080635;28;20428;-59
2021/01/14 01:56:12;;;;;;;3.97;2.53;;;;;;;;;;2089545;28;20431;-58
2021/01/14 01:57:13;;;;;;;4.53;3.07;;;;;;;;;;2089909;28;20228;-55
2021/01/14 01:58:14;;;;;;;5.90;3.23;;;;;;;;;;2089992;28;20463;-57
2021/01/14 01:59:17;;;;;;;7.40;3.93;;;;;;;;;;2080712;28;20172;-57
2021/01/14 02:00:18;;;;;;;8.53;2.97;;;;;;;;;;2081271;28;20441;-55
2021/01/14 02:01:18;;;;;;;6.73;3.20;;;;;;;;;;2078691;28;20468;-59
2021/01/14 02:02:18;;;;;;;4.20;2.53;;;;;;;;;;2084359;28;20682;-59
2021/01/14 02:03:18;;;;;;;5.60;3.03;;;;;;;;;;2090123;28;20184;-57
2021/01/14 02:04:18;;;;;;;8.13;3.00;;;;;;;;;;2087426;28;20211;-56
2021/01/14 02:05:19;;;;;;;10.57;3.37;;;;;;;;;;2089343;28;20181;-56
2021/01/14 02:06:19;;;;;;;4.40;2.93;;;;;;;;;;2089416;28;20233;-58
2021/01/14 02:07:38;;;;;;;7.10;3.17;;;;;;;;;;2088795;28;20179;-55
2021/01/14 02:08:38;;;;;;;4.60;3.17;;;;;;;;;;2089530;28;20634;-57
2021/01/14 02:09:39;;;;;;;4.60;3.37;;;;;;;;;;2080848;28;20492;-58
2021/01/14 02:10:47;;;;;;;3.37;2.63;;;;;;;;;;2080129;28;20234;-53
2021/01/14 02:11:50;;;;;;;8.37;3.13;;;;;;;;;;2089007;28;20194;-55
2021/01/14 02:13:00;;;;;;;9.43;2.67;;;;;;;;;;2086745;28;20431;-55
2021/01/14 02:14:12;;;;;;;5.87;3.33;;;;;;;;;;2083502;28;20397;-61
2021/01/14 02:15:13;;;;;;;7.67;3.40;;;;;;;;;;2089377;28;20416;-55
2021/01/14 02:16:13;;;;;;;5.43;2.70;;;;;;;;;;2089221;28;20424;-56
2021/01/14 02:17:14;;;;;;;8.17;3.40;;;;;;;;;;2088533;28;20416;-57
2021/01/14 02:18:16;;;;;;;7.43;3.20;;;;;;;;;;2084944;28;20198;-52
2021/01/14 02:19:20;;;;;;;5.67;2.93;;;;;;;;;;2089240;28;20212;-63
2021/01/14 02:20:21;;;;;;;8.63;3.30;;;;;;;;;;2088184;28;20419;-55
2021/01/14 02:21:23;;;;;;;6.30;3.23;;;;;;;;;;2086978;28;20397;-56
2021/01/14 02:22:29;;;;;;;6.50;2.90;;;;;;;;;;2088969;28;20636;-58
2021/01/14 02:23:35;;;;;;;8.00;3.07;;;;;;;;;;2089659;28;20966;-61
2021/01/14 02:25:10;;;;;;;7.43;3.27;;;;;;;;;;2088331;28;20447;-59
2021/01/14 02:26:14;;;;;;;10.00;2.90;;;;;;;;;;2039905;29;20466;-57
2021/01/14 02:27:15;;;;;;;5.43;2.60;;;;;;;;;;2038699;29;20417;-55
2021/01/14 02:28:15;;;;;;;4.70;3.23;;;;;;;;;;2053360;28;20509;-55
2021/01/14 02:29:16;;;;;;;11.13;3.23;;;;;;;;;;2089768;28;20526;-59
2021/01/14 02:30:17;;;;;;;7.43;2.83;;;;;;;;;;2088656;28;20229;-54
2021/01/14 02:31:17;;;;;;;8.70;4.00;;;;;;;;;;2083481;28;20302;-56
2021/01/14 02:32:17;;;;;;;8.03;3.60;;;;;;;;;;2088684;28;20160;-55
2021/01/14 02:33:18;;;;;;;5.97;3.00;;;;;;;;;;2089787;28;20539;-58
2021/01/14 02:34:18;;;;;;;9.23;3.30;;;;;;;;;;2084887;28;20266;-57
2021/01/14 02:35:18;;;;;;;8.73;3.17;;;;;;;;;;2089803;28;20172;-57
2021/01/14 02:36:19;;;;;;;7.67;2.97;;;;;;;;;;2089487;28;20534;-56
2021/01/14 02:37:19;;;;;;;5.23;3.10;;;;;;;;;;2084227;28;20740;-58
2021/01/14 02:38:20;;;;;;;4.70;3.00;;;;;;;;;;2086166;28;20178;-60
2021/01/14 02:39:20;;;;;;;8.60;3.10;;;;;;;;;;2088405;28;20652;-56
2021/01/14 02:40:20;;;;;;;6.53;3.33;;;;;;;;;;2090001;28;20612;-61
2021/01/14 02:41:20;;;;;;;5.67;3.40;;;;;;;;;;2085290;28;20692;-62
2021/01/14 02:42:21;;;;;;;5.50;3.17;;;;;;;;;;2086956;28;20656;-61
2021/01/14 02:43:21;;;;;;;8.60;3.30;;;;;;;;;;2089653;28;20251;-60
2021/01/14 02:44:21;;;;;;;7.80;3.60;;;;;;;;;;2089438;28;20199;-60
2021/01/14 02:45:21;;;;;;;6.20;2.93;;;;;;;;;;2080552;28;20208;-61
2021/01/14 02:46:22;;;;;;;5.80;2.90;;;;;;;;;;2080706;28;20257;-59
2021/01/14 02:47:23;;;;;;;6.77;3.97;;;;;;;;;;2090594;28;20179;-61
2021/01/14 02:48:28;;;;;;;6.57;3.13;;;;;;;;;;2086860;28;20627;-61
2021/01/14 02:49:31;;;;;;;10.33;3.40;;;;;;;;;;2082099;28;20504;-59
2021/01/14 02:50:34;;;;;;;8.60;3.27;;;;;;;;;;2080700;28;20456;-62
2021/01/14 02:51:49;;;;;;;8.53;3.67;;;;;;;;;;2081881;28;20416;-60
2021/01/14 02:52:51;;;;;;;7.00;3.33;;;;;;;;;;2085244;28;20496;-61
2021/01/14 02:53:51;;;;;;;7.37;3.40;;;;;;;;;;2090768;28;20433;-62
2021/01/14 02:54:52;;;;;;;8.67;3.13;;;;;;;;;;2092049;28;20437;-60
2021/01/14 02:55:52;;;;;;;7.27;3.23;;;;;;;;;;2085129;28;20199;-60
2021/01/14 02:56:53;;;;;;;7.93;3.67;;;;;;;;;;2089415;28;20167;-55
2021/01/14 02:57:53;;;;;;;5.27;2.90;;;;;;;;;;2079980;28;20200;-56
2021/01/14 02:58:56;;;;;;;12.87;3.50;;;;;;;;;;2080614;28;20172;-56
2021/01/14 02:59:57;;;;;;;12.07;3.63;;;;;;;;;;2079471;28;20186;-59
2021/01/14 03:00:57;;;;;;;5.60;3.53;;;;;;;;;;2072618;28;20421;-57
2021/01/14 03:01:57;;;;;;;9.47;3.53;;;;;;;;;;2079194;28;20173;-57
2021/01/14 03:02:57;;;;;;;9.20;3.30;;;;;;;;;;2080481;28;20184;-58
2021/01/14 03:03:58;;;;;;;6.30;3.00;;;;;;;;;;2080305;28;20180;-60
2021/01/14 03:04:58;;;;;;;6.23;3.37;;;;;;;;;;2088168;28;20602;-58
2021/01/14 03:05:58;;;;;;;6.90;3.63;;;;;;;;;;2089590;28;20701;-57
2021/01/14 03:06:58;;;;;;;5.50;4.13;;;;;;;;;;2089351;28;20167;-60
2021/01/14 03:07:59;;;;;;;6.87;3.10;;;;;;;;;;2089742;28;20207;-59
2021/01/14 03:08:59;;;;;;;7.80;3.67;;;;;;;;;;2089927;28;20229;-59
2021/01/14 03:09:59;;;;;;;6.60;3.70;;;;;;;;;;2091109;28;20164;-58
2021/01/14 03:10:59;;;;;;;7.20;3.67;;;;;;;;;;2090419;28;20187;-58
2021/01/14 03:11:59;;;;;;;7.33;3.40;;;;;;;;;;2090337;28;20172;-58
2021/01/14 03:13:00;;;;;;;6.17;3.23;;;;;;;;;;2089058;28;20584;-57
2021/01/14 03:14:00;;;;;;;8.50;3.13;;;;;;;;;;2090503;28;20635;-59
2021/01/14 03:15:00;;;;;;;10.57;3.50;;;;;;;;;;2090987;28;20232;-55
2021/01/14 03:16:01;;;;;;;10.87;3.33;;;;;;;;;;2089919;28;20176;-58
2021/01/14 03:17:01;;;;;;;5.73;2.87;;;;;;;;;;2089521;28;20592;-55
2021/01/14 03:18:02;;;;;;;7.53;3.67;;;;;;;;;;2090644;28;20245;-59
2021/01/14 03:19:02;;;;;;;8.00;3.17;;;;;;;;;;2088501;28;20199;-58
2021/01/14 03:20:06;;;;;;;5.40;4.30;;;;;;;;;;2091055;28;20168;-58
2021/01/14 03:21:06;;;;;;;7.47;4.33;;;;;;;;;;2081681;28;20657;-58
2021/01/14 03:22:06;;;;;;;6.70;3.23;;;;;;;;;;2078501;28;20468;-58
2021/01/14 03:23:08;;;;;;;9.77;3.30;;;;;;;;;;2078613;28;20176;-60
2021/01/14 03:24:09;;;;;;;6.50;3.40;;;;;;;;;;2074149;28;20177;-58
2021/01/14 03:25:10;;;;;;;6.67;3.40;;;;;;;;;;2086363;28;20920;-57
2021/01/14 03:26:11;;;;;;;8.90;3.93;;;;;;;;;;2090893;28;20511;-55
2021/01/14 03:27:11;;;;;;;16.47;3.70;;;;;;;;;;2089412;28;20427;-59
2021/01/14 03:28:11;;;;;;;9.83;3.63;;;;;;;;;;2090150;28;20289;-58
2021/01/14 03:29:12;;;;;;;8.57;3.50;;;;;;;;;;2081399;28;20181;-57
2021/01/14 03:30:14;;;;;;;10.87;3.53;;;;;;;;;;2081928;28;20661;-59
2021/01/14 03:31:15;;;;;;;6.93;3.37;;;;;;;;;;2090061;28;20654;-59
2021/01/14 03:32:15;;;;;;;5.33;3.40;;;;;;;;;;2089827;28;20404;-55
2021/01/14 03:33:15;;;;;;;7.93;3.27;;;;;;;;;;2091275;28;20568;-58
2021/01/14 03:34:15;;;;;;;4.87;2.90;;;;;;;;;;2090842;28;20200;-62
2021/01/14 03:35:16;;;;;;;4.27;3.40;;;;;;;;;;2090864;28;20225;-60
2021/01/14 03:36:17;;;;;;;6.27;3.43;;;;;;;;;;2090717;28;20233;-60
2021/01/14 03:37:17;;;;;;;7.83;3.77;;;;;;;;;;2090475;28;20176;-59
2021/01/14 03:38:18;;;;;;;5.30;3.53;;;;;;;;;;2090973;28;20440;-57
2021/01/14 03:39:18;;;;;;;8.57;3.73;;;;;;;;;;2091097;28;20188;-60
2021/01/14 03:40:18;;;;;;;6.73;3.57;;;;;;;;;;2090982;28;20174;-58
2021/01/14 03:41:19;;;;;;;10.13;4.07;;;;;;;;;;2091077;28;20198;-53
2021/01/14 03:42:20;;;;;;;10.50;3.17;;;;;;;;;;2090880;28;20227;-60
2021/01/14 03:43:20;;;;;;;9.43;4.00;;;;;;;;;;2091044;28;20225;-56
2021/01/14 03:44:20;;;;;;;3.60;3.30;;;;;;;;;;2090738;28;20204;-61
2021/01/14 03:45:21;;;;;;;6.63;3.20;;;;;;;;;;2081307;28;20192;-60
2021/01/14 03:46:21;;;;;;;7.27;3.77;;;;;;;;;;2074025;28;20188;-60
2021/01/14 03:47:22;;;;;;;6.33;3.67;;;;;;;;;;2081437;28;20185;-59
2021/01/14 03:48:22;;;;;;;11.47;4.30;;;;;;;;;;2091022;28;20221;-59
2021/01/14 03:49:23;;;;;;;6.43;3.37;;;;;;;;;;2090861;28;20405;-59
2021/01/14 03:50:23;;;;;;;8.03;3.67;;;;;;;;;;2081801;28;20172;-60
2021/01/14 03:51:23;;;;;;;7.77;4.27;;;;;;;;;;2082166;28;20564;-56
2021/01/14 03:52:24;;;;;;;9.10;4.20;;;;;;;;;;2088836;28;20167;-56
2021/01/14 03:53:24;;;;;;;5.87;3.50;;;;;;;;;;2084232;28;20180;-56
2021/01/14 03:54:24;;;;;;;7.40;4.20;;;;;;;;;;2087893;28;20196;-54
2021/01/14 03:55:25;;;;;;;10.10;3.77;;;;;;;;;;2088769;28;20636;-53
2021/01/14 03:56:25;;;;;;;6.47;3.57;;;;;;;;;;2088276;28;20168;-58
2021/01/14 03:57:25;;;;;;;5.17;4.07;;;;;;;;;;2088732;28;20826;-58
2021/01/14 03:58:25;;;;;;;3.67;3.07;;;;;;;;;;2090318;28;20210;-53
2021/01/14 03:59:26;;;;;;;10.03;3.90;;;;;;;;;;2081175;28;20176;-58
2021/01/14 04:00:26;;;;;;;5.90;3.60;;;;;;;;;;2082041;28;20456;-57
2021/01/14 04:01:26;;;;;;;5.90;4.10;;;;;;;;;;2081588;28;20192;-60
2021/01/14 04:02:26;;;;;;;6.77;3.70;;;;;;;;;;2081161;28;20191;-59
2021/01/14 04:03:27;;;;;;;5.80;3.63;;;;;;;;;;2075549;28;20259;-58
2021/01/14 04:04:27;;;;;;;6.97;3.23;;;;;;;;;;2081242;28;20207;-59
2021/01/14 04:05:27;;;;;;;7.47;3.30;;;;;;;;;;2084480;28;20246;-58
2021/01/14 04:06:31;;;;;;;7.70;4.27;;;;;;;;;;2088104;28;20175;-58
2021/01/14 04:07:31;;;;;;;7.23;3.53;;;;;;;;;;2089647;28;20209;-60
2021/01/14 04:08:32;;;;;;;9.87;3.83;;;;;;;;;;2090368;28;21035;-61
2021/01/14 04:09:32;;;;;;;6.00;3.17;;;;;;;;;;2091146;28;20156;-62
2021/01/14 04:10:32;;;;;;;6.23;3.07;;;;;;;;;;2088922;28;20211;-62
2021/01/14 04:11:33;;;;;;;8.97;4.10;;;;;;;;;;2083896;28;20172;-60
2021/01/14 04:12:33;;;;;;;9.13;3.60;;;;;;;;;;2087773;28;20175;-59
2021/01/14 04:13:33;;;;;;;6.67;4.07;;;;;;;;;;2089917;28;20245;-55
2021/01/14 04:14:34;;;;;;;4.60;3.50;;;;;;;;;;2089522;28;20199;-59
2021/01/14 04:15:34;;;;;;;6.37;3.60;;;;;;;;;;2090554;28;20210;-58
2021/01/14 04:16:34;;;;;;;5.20;3.57;;;;;;;;;;2090018;28;20599;-61
2021/01/14 04:17:34;;;;;;;5.83;3.97;;;;;;;;;;2090156;28;20636;-60
2021/01/14 04:18:34;;;;;;;13.77;4.00;;;;;;;;;;2089919;28;20346;-59
2021/01/14 04:19:35;;;;;;;5.40;3.83;;;;;;;;;;2080208;28;20180;-58
2021/01/14 04:20:35;;;;;;;4.17;3.43;;;;;;;;;;2081412;28;20246;-57
2021/01/14 04:21:35;;;;;;;4.60;3.20;;;;;;;;;;2089825;28;20273;-57
2021/01/14 04:22:35;;;;;;;5.07;3.43;;;;;;;;;;2087319;28;20175;-60
2021/01/14 04:23:36;;;;;;;8.23;3.40;;;;;;;;;;2090735;28;20726;-58
2021/01/14 04:24:38;;;;;;;4.93;2.87;;;;;;;;;;2071159;28;20588;-60
2021/01/14 04:25:39;;;;;;;6.53;3.50;;;;;;;;;;2074416;28;20746;-61
2021/01/14 04:26:39;;;;;;;5.90;4.03;;;;;;;;;;2089845;28;20440;-60
2021/01/14 04:27:39;;;;;;;5.40;3.70;;;;;;;;;;2081186;28;20195;-59
2021/01/14 04:28:39;;;;;;;7.97;3.43;;;;;;;;;;2073264;28;20709;-60
2021/01/14 04:29:39;;;;;;;9.27;3.33;;;;;;;;;;2081595;28;20722;-59
2021/01/14 04:30:40;;;;;;;10.13;3.60;;;;;;;;;;2081310;28;20196;-59
2021/01/14 04:31:40;;;;;;;5.40;3.67;;;;;;;;;;2081919;28;20181;-59
2021/01/14 04:32:40;;;;;;;6.57;3.53;;;;;;;;;;2080660;28;20386;-60
2021/01/14 04:33:40;;;;;;;4.80;3.40;;;;;;;;;;2081314;28;20255;-59
2021/01/14 04:34:41;;;;;;;20.40;3.67;;;;;;;;;;2089541;28;20563;-59
2021/01/14 04:35:44;;;;;;;4.50;3.20;;;;;;;;;;2082081;28;20776;-59
2021/01/14 04:36:44;;;;;;;5.00;3.50;;;;;;;;;;2089731;28;20199;-59
2021/01/14 04:37:46;;;;;;;4.67;3.40;;;;;;;;;;2088266;28;20443;-55
2021/01/14 04:38:47;;;;;;;6.17;3.50;;;;;;;;;;2090432;28;20168;-59
2021/01/14 04:39:47;;;;;;;6.67;3.57;;;;;;;;;;2081450;28;21012;-61
2021/01/14 04:41:14;;;;;;;7.63;3.87;;;;;;;;;;2079735;28;20199;-59
2021/01/14 04:42:15;;;;;;;7.10;3.40;;;;;;;;;;2082999;28;20184;-60
2021/01/14 04:43:15;;;;;;;5.97;3.50;;;;;;;;;;2080627;28;20429;-60
2021/01/14 04:44:16;;;;;;;7.37;3.83;;;;;;;;;;2080954;28;20948;-59
2021/01/14 04:45:20;;;;;;;7.47;4.33;;;;;;;;;;2090045;28;20183;-57
2021/01/14 04:46:21;;;;;;;5.27;3.97;;;;;;;;;;2090618;28;20175;-61
2021/01/14 04:47:23;;;;;;;3.93;3.37;;;;;;;;;;2088635;28;20389;-57
2021/01/14 04:48:23;;;;;;;4.80;3.43;;;;;;;;;;2087246;28;20249;-58
2021/01/14 04:49:24;;;;;;;6.27;3.73;;;;;;;;;;2080869;28;20414;-59
2021/01/14 04:50:26;;;;;;;6.63;3.97;;;;;;;;;;2081022;28;20175;-61
2021/01/14 04:51:28;;;;;;;9.47;4.00;;;;;;;;;;2089688;28;20229;-60
2021/01/14 04:52:29;;;;;;;7.60;4.00;;;;;;;;;;2081285;28;20986;-62
2021/01/14 04:53:30;;;;;;;6.73;4.20;;;;;;;;;;2081159;28;20434;-59
2021/01/14 04:54:34;;;;;;;8.33;3.70;;;;;;;;;;2088316;28;20515;-60
2021/01/14 04:55:41;;;;;;;3.90;3.37;;;;;;;;;;2089944;28;20416;-60
2021/01/14 04:56:46;;;;;;;9.27;3.60;;;;;;;;;;2082255;28;20402;-61
2021/01/14 04:57:49;;;;;;;9.53;3.90;;;;;;;;;;2085523;28;20428;-59
2021/01/14 04:58:49;;;;;;;5.73;4.00;;;;;;;;;;2089488;28;20405;-60
2021/01/14 04:59:53;;;;;;;5.97;3.40;;;;;;;;;;2088754;28;20437;-58
2021/01/14 05:00:56;;;;;;;7.10;4.17;;;;;;;;;;2090167;28;20631;-59
2021/01/14 05:01:57;;;;;;;4.93;3.20;;;;;;;;;;2089637;28;20409;-58
2021/01/14 05:03:04;;;;;;;6.23;3.30;;;;;;;;;;2086006;28;20433;-60
2021/01/14 05:04:05;;;;;;;5.37;3.43;;;;;;;;;;2080375;28;20405;-59
2021/01/14 05:05:10;;;;;;;5.93;3.53;;;;;;;;;;2072786;28;20433;-60
2021/01/14 05:06:10;;;;;;;6.47;3.50;;;;;;;;;;2081579;28;20872;-60
2021/01/14 05:07:12;;;;;;;3.50;2.77;;;;;;;;;;2090093;28;20420;-60
2021/01/14 05:08:13;;;;;;;4.97;3.33;;;;;;;;;;2089227;28;20214;-58
2021/01/14 05:09:17;;;;;;;7.77;3.70;;;;;;;;;;2090435;28;20512;-58
2021/01/14 05:10:21;;;;;;;9.47;3.63;;;;;;;;;;2087360;28;20434;-60
2021/01/14 05:11:24;;;;;;;6.87;3.83;;;;;;;;;;2087376;28;20417;-60
2021/01/14 05:12:24;;;;;;;9.80;4.20;;;;;;;;;;2081317;28;20937;-59
2021/01/14 05:13:28;;;;;;;5.10;3.20;;;;;;;;;;2081276;28;20409;-64
2021/01/14 05:14:28;;;;;;;5.13;3.40;;;;;;;;;;2090219;28;20191;-56
2021/01/14 05:15:29;;;;;;;8.27;4.13;;;;;;;;;;2089135;28;20421;-55
2021/01/14 05:16:29;;;;;;;8.10;3.20;;;;;;;;;;2090281;28;20174;-55
2021/01/14 05:17:30;;;;;;;5.53;4.00;;;;;;;;;;2089594;28;20172;-55
2021/01/14 05:18:31;;;;;;;5.00;3.77;;;;;;;;;;2090116;28;20278;-55
2021/01/14 05:19:31;;;;;;;5.43;3.33;;;;;;;;;;2089649;28;20172;-57
2021/01/14 05:20:31;;;;;;;6.20;3.60;;;;;;;;;;2085201;28;20275;-56
2021/01/14 05:21:32;;;;;;;6.83;3.43;;;;;;;;;;2088228;28;20176;-58
2021/01/14 05:22:32;;;;;;;6.43;3.53;;;;;;;;;;2088974;28;20589;-60
2021/01/14 05:23:33;;;;;;;6.60;3.80;;;;;;;;;;2089599;28;20656;-57
2021/01/14 05:24:33;;;;;;;9.20;3.80;;;;;;;;;;2085696;28;20223;-56
2021/01/14 05:25:34;;;;;;;5.97;4.27;;;;;;;;;;2089745;28;20182;-56
2021/01/14 05:26:34;;;;;;;4.40;3.17;;;;;;;;;;2083077;28;20184;-59
2021/01/14 05:27:36;;;;;;;11.70;3.97;;;;;;;;;;2075499;28;20660;-59
2021/01/14 05:28:36;;;;;;;5.90;3.33;;;;;;;;;;2073833;28;20222;-57
2021/01/14 05:29:36;;;;;;;6.07;3.40;;;;;;;;;;2089526;28;20444;-57
2021/01/14 05:30:37;;;;;;;6.90;3.50;;;;;;;;;;2088280;28;20217;-56
2021/01/14 05:31:37;;;;;;;8.77;3.57;;;;;;;;;;2089623;28;20234;-63
2021/01/14 05:32:38;;;;;;;3.77;3.37;;;;;;;;;;2091154;28;20172;-59
2021/01/14 05:33:39;;;;;;;5.77;3.70;;;;;;;;;;2089150;28;20221;-56
2021/01/14 05:34:48;;;;;;;7.37;3.70;;;;;;;;;;2088177;28;20531;-55
2021/01/14 05:35:49;;;;;;;6.33;3.57;;;;;;;;;;2082098;28;20233;-56
2021/01/14 05:36:54;;;;;;;4.30;3.33;;;;;;;;;;2089334;28;20420;-55
2021/01/14 05:38:01;;;;;;;9.40;3.30;;;;;;;;;;2088387;28;20499;-55
2021/01/14 05:39:01;;;;;;;5.57;3.97;;;;;;;;;;2090141;28;20385;-58
2021/01/14 05:40:03;;;;;;;5.13;3.50;;;;;;;;;;2086739;28;20944;-56
2021/01/14 05:41:19;;;;;;;4.63;3.90;;;;;;;;;;2084771;28;20176;-59
2021/01/14 05:42:19;;;;;;;8.00;3.77;;;;;;;;;;2090162;28;20391;-56
2021/01/14 05:43:19;;;;;;;6.83;3.73;;;;;;;;;;2080168;28;20985;-57
2021/01/14 05:44:34;;;;;;;4.03;3.17;;;;;;;;;;2067914;28;20235;-60
2021/01/14 05:45:34;;;;;;;4.20;3.67;;;;;;;;;;2071616;28;20187;-59
2021/01/14 05:46:34;;;;;;;5.27;3.10;;;;;;;;;;2071509;28;20801;-56
2021/01/14 05:47:34;;;;;;;9.70;3.73;;;;;;;;;;2078884;28;20192;-58
2021/01/14 05:48:35;;;;;;;4.53;3.20;;;;;;;;;;2089294;28;20203;-56
2021/01/14 05:49:36;;;;;;;5.53;3.37;;;;;;;;;;2086025;28;20168;-56
2021/01/14 05:50:41;;;;;;;6.83;3.40;;;;;;;;;;2081691;28;20637;-58
2021/01/14 05:51:52;;;;;;;5.07;3.47;;;;;;;;;;2081466;28;20413;-59
2021/01/14 05:52:52;;;;;;;7.87;3.60;;;;;;;;;;2087409;28;20900;-61
2021/01/14 05:54:00;;;;;;;8.80;3.43;;;;;;;;;;2086410;28;20294;-62
2021/01/14 05:55:00;;;;;;;5.83;3.33;;;;;;;;;;2091667;28;20625;-60
2021/01/14 05:56:00;;;;;;;5.73;3.30;;;;;;;;;;2082698;28;20468;-62
2021/01/14 05:57:05;;;;;;;4.73;3.20;;;;;;;;;;2083163;28;20202;-55
2021/01/14 05:58:06;;;;;;;4.43;3.63;;;;;;;;;;2093135;28;20628;-58
2021/01/14 05:59:07;;;;;;;4.80;3.30;;;;;;;;;;2093626;28;20431;-60
2021/01/14 06:00:08;;;;;;;7.60;3.30;;;;;;;;;;2093220;28;20599;-62
2021/01/14 06:01:08;;;;;;;5.07;3.30;;;;;;;;;;2083062;28;20417;-62
2021/01/14 06:02:09;;;;;;;6.40;3.90;;;;;;;;;;2081229;28;20195;-62
2021/01/14 06:03:24;;;;;;;6.93;3.33;;;;;;;;;;2086946;28;20171;-60
2021/01/14 06:04:25;;;;;;;8.27;3.87;;;;;;;;;;2091191;28;20602;-61
2021/01/14 06:05:26;;;;;;;5.23;3.80;;;;;;;;;;2079765;28;20444;-59
2021/01/14 06:06:27;;;;;;;7.33;3.63;;;;;;;;;;2081207;28;20190;-60
2021/01/14 06:07:38;;;;;;;7.03;3.73;;;;;;;;;;2079283;28;20164;-62
2021/01/14 06:08:38;;;;;;;4.20;3.70;;;;;;;;;;2083091;28;20208;-57
2021/01/14 06:09:39;;;;;;;5.53;3.77;;;;;;;;;;2081367;28;20493;-57